METAR AND TAF INFORMATION
METAR FOR HEGN
ADDS - METARS form results

(0520 UTC 28 October 2020)
Data provider http://aviationweather.gov/metar/data/
 
METAR text: HEGN 280500Z 30006KT CAVOK 24/14 Q1012 NOSIG
Conditions at: HEGN (HURGUADA , EG) observed 0500 UTC 28 October 2020
Temperature: 24.0°C (75°F)
Dewpoint: 14.0°C (57°F) [RH = 54%]
Pressure (altimeter): 29.88 inches Hg (1012.0 mb)
Winds: from the WNW (300 degrees) at 7 MPH (6 knots; 3.1 m/s)
Visibility: 6 or more miles (10+ km)
Ceiling: ceiling and visibility are OK
Clouds: unknown
Weather: no significant weather observed at this time

Forecast for: HEGN (HURGUADA , EG)
Text: TAF HEGN 280500Z 2806/2912 32012KT CAVOK
Forecast period: 0600 UTC 28 October 2020 to 1200 UTC 29 October 2020
Forecast type: FROM: standard forecast or significant change
Winds: from the NW (320 degrees) at 14 MPH (12 knots; 6.2 m/s)
Visibility: 6 or more miles (10+ km)
Ceiling: unknown
Clouds: missing
Weather: NSW  (no significant weather)

 AIRPORT MAP

 RUNWAY INFORMATION

 AIRPORT FREQUENCIES
Type APP Name RADAR Frequency 123.4 MHZ
Type GND Name GND Frequency 121.9 MHZ
Type RDO Name RDO Frequency 585.9 MHZ
Type TWR Name TWR Frequency 119.6 MHZ

 AIRPORT NEAR NAVIGATION AIDS
Type VOR-DME Name Hurghada Frequency 116500 KHZ



2018 Air Astana Virtual Airline